createdAt,value
2018-06-29T00:00:06.073Z,985.30
2018-06-29T00:01:06.020Z,985.30
2018-06-29T00:02:05.964Z,985.26
2018-06-29T00:03:05.910Z,985.29
2018-06-29T00:04:05.856Z,985.31
2018-06-29T00:05:05.804Z,985.34
2018-06-29T00:06:05.749Z,985.36
2018-06-29T00:07:05.700Z,985.36
2018-06-29T00:08:05.640Z,985.32
2018-06-29T00:09:05.590Z,985.32
2018-06-29T00:10:05.533Z,985.28
2018-06-29T00:11:05.479Z,985.29
2018-06-29T00:12:05.428Z,985.27
2018-06-29T00:13:05.376Z,985.28
2018-06-29T00:14:05.319Z,985.30
2018-06-29T00:15:05.264Z,985.30
2018-06-29T00:16:05.211Z,985.30
2018-06-29T00:17:05.157Z,985.34
2018-06-29T00:18:05.104Z,985.34
2018-06-29T00:19:05.057Z,985.36
2018-06-29T00:20:05.001Z,985.35
2018-06-29T00:21:04.943Z,985.35
2018-06-29T00:22:04.888Z,985.35
2018-06-29T00:23:04.837Z,985.30
2018-06-29T00:24:04.781Z,985.33
2018-06-29T00:25:04.727Z,985.34
2018-06-29T00:26:04.673Z,985.30
2018-06-29T00:27:04.622Z,985.33
2018-06-29T00:28:04.568Z,985.36
2018-06-29T00:29:04.512Z,985.35
2018-06-29T00:30:04.457Z,985.32
2018-06-29T00:31:04.404Z,985.38
2018-06-29T00:32:04.351Z,985.37
2018-06-29T00:33:04.297Z,985.40
2018-06-29T00:34:04.243Z,985.44
2018-06-29T00:35:04.190Z,985.44
2018-06-29T00:36:04.137Z,985.49
2018-06-29T00:37:04.086Z,985.47
2018-06-29T00:38:04.027Z,985.45
2018-06-29T00:39:03.973Z,985.44
2018-06-29T00:40:03.919Z,985.42
2018-06-29T00:41:03.866Z,985.42
2018-06-29T00:42:03.811Z,985.42
2018-06-29T00:43:03.760Z,985.41
2018-06-29T00:44:03.705Z,985.48
2018-06-29T00:45:03.652Z,985.47
2018-06-29T00:46:03.598Z,985.42
2018-06-29T00:47:03.543Z,985.38
2018-06-29T00:48:03.498Z,985.34
2018-06-29T00:49:03.440Z,985.34
2018-06-29T00:50:03.381Z,985.34
2018-06-29T00:51:03.328Z,985.34
2018-06-29T00:52:03.276Z,985.34
2018-06-29T00:53:03.222Z,985.38
2018-06-29T00:54:03.167Z,985.35
2018-06-29T00:55:03.117Z,985.42
2018-06-29T00:56:03.060Z,985.42
2018-06-29T00:57:03.005Z,985.43
2018-06-29T00:58:02.951Z,985.45
2018-06-29T00:59:02.899Z,985.42
2018-06-29T01:00:02.844Z,985.42
2018-06-29T01:01:02.791Z,985.44
2018-06-29T01:02:02.736Z,985.43
2018-06-29T01:03:02.684Z,985.44
2018-06-29T01:04:02.629Z,985.41
2018-06-29T01:05:02.576Z,985.40
2018-06-29T01:06:02.524Z,985.40
2018-06-29T01:07:02.470Z,985.41
2018-06-29T01:08:02.416Z,985.43
2018-06-29T01:09:02.361Z,985.41
2018-06-29T01:10:02.306Z,985.41
2018-06-29T01:11:02.252Z,985.44
2018-06-29T01:12:02.202Z,985.40
2018-06-29T01:13:02.142Z,985.44
2018-06-29T01:14:02.092Z,985.44
2018-06-29T01:15:02.040Z,985.41
2018-06-29T01:16:01.981Z,985.38
2018-06-29T01:17:01.928Z,985.41
2018-06-29T01:18:01.872Z,985.38
2018-06-29T01:19:01.821Z,985.38
2018-06-29T01:20:01.766Z,985.37
2018-06-29T01:21:01.712Z,985.37
2018-06-29T01:22:01.657Z,985.38
2018-06-29T01:23:01.609Z,985.31
2018-06-29T01:24:01.550Z,985.36
2018-06-29T01:25:01.498Z,985.35
2018-06-29T01:26:01.442Z,985.37
2018-06-29T01:27:01.389Z,985.34
2018-06-29T01:28:01.334Z,985.32
2018-06-29T01:29:01.281Z,985.36
2018-06-29T01:30:01.227Z,985.37
2018-06-29T01:31:01.172Z,985.32
2018-06-29T01:32:01.118Z,985.32
2018-06-29T01:33:01.064Z,985.30
2018-06-29T01:34:01.010Z,985.33
2018-06-29T01:35:00.956Z,985.27
2018-06-29T01:36:00.906Z,985.25
2018-06-29T01:37:00.848Z,985.27
2018-06-29T01:38:00.794Z,985.24
2018-06-29T01:39:00.740Z,985.24
2018-06-29T01:40:00.686Z,985.20
2018-06-29T01:41:00.633Z,985.20
2018-06-29T01:42:00.577Z,985.20
2018-06-29T01:43:00.524Z,985.18
2018-06-29T01:44:00.472Z,985.16
2018-06-29T01:45:00.418Z,985.14
2018-06-29T01:46:00.362Z,985.18
2018-06-29T01:47:00.307Z,985.16
2018-06-29T01:48:00.254Z,985.14
2018-06-29T01:49:00.202Z,985.14
2018-06-29T01:50:00.147Z,985.17
2018-06-29T01:51:00.094Z,985.11
2018-06-29T01:52:00.040Z,985.08
2018-06-29T01:52:59.984Z,985.08
2018-06-29T01:53:59.984Z,985.09
2018-06-29T01:54:59.876Z,985.06
2018-06-29T01:55:59.823Z,985.05
2018-06-29T01:56:59.772Z,985.04
2018-06-29T01:57:59.713Z,985.04
2018-06-29T01:58:59.662Z,985.01
2018-06-29T01:59:59.605Z,984.98
2018-06-29T02:00:59.553Z,984.99
2018-06-29T02:01:59.506Z,985.02
2018-06-29T02:02:59.445Z,984.98
2018-06-29T02:03:59.392Z,985.01
2018-06-29T02:04:59.336Z,985.06
2018-06-29T02:05:59.281Z,985.07
2018-06-29T02:06:59.226Z,985.05
2018-06-29T02:07:59.223Z,985.08
2018-06-29T02:08:59.120Z,985.10
2018-06-29T02:09:59.065Z,985.07
2018-06-29T02:10:59.010Z,985.11
2018-06-29T02:11:58.960Z,985.11
2018-06-29T02:12:58.907Z,985.04
2018-06-29T02:13:58.849Z,985.04
2018-06-29T02:14:58.804Z,985.04
2018-06-29T02:15:58.741Z,985.04
2018-06-29T02:16:58.687Z,985.03
2018-06-29T02:17:58.634Z,985.04
2018-06-29T02:18:58.579Z,985.01
2018-06-29T02:19:58.525Z,984.97
2018-06-29T02:20:58.476Z,984.96
2018-06-29T02:21:58.417Z,984.93
2018-06-29T02:22:58.363Z,984.94
2018-06-29T02:23:58.309Z,984.96
2018-06-29T02:24:58.256Z,984.97
2018-06-29T02:25:58.201Z,984.96
2018-06-29T02:26:58.147Z,984.92
2018-06-29T02:27:58.094Z,984.90
2018-06-29T02:28:58.042Z,984.92
2018-06-29T02:29:57.986Z,984.97
2018-06-29T02:30:57.931Z,984.91
2018-06-29T02:31:57.879Z,984.94
2018-06-29T02:32:57.825Z,984.91
2018-06-29T02:33:57.768Z,984.89
2018-06-29T02:34:57.716Z,984.90
2018-06-29T02:35:57.666Z,984.91
2018-06-29T02:36:57.610Z,984.91
2018-06-29T02:37:57.556Z,984.86
2018-06-29T02:38:57.501Z,984.88
2018-06-29T02:39:57.450Z,984.90
2018-06-29T02:40:57.395Z,984.86
2018-06-29T02:41:57.342Z,984.88
2018-06-29T02:42:57.285Z,984.86
2018-06-29T02:43:57.233Z,984.87
2018-06-29T02:44:57.179Z,984.88
2018-06-29T02:45:57.124Z,984.90
2018-06-29T02:46:57.076Z,984.94
2018-06-29T02:47:57.016Z,984.91
2018-06-29T02:48:56.964Z,984.94
2018-06-29T02:49:56.911Z,984.96
2018-06-29T02:50:56.855Z,984.95
2018-06-29T02:51:56.803Z,984.94
2018-06-29T02:52:56.750Z,984.91
2018-06-29T02:53:56.694Z,984.88
2018-06-29T02:54:56.641Z,984.87
2018-06-29T02:55:56.595Z,984.81
2018-06-29T02:56:56.536Z,984.81
2018-06-29T02:57:56.484Z,984.84
2018-06-29T02:58:56.429Z,984.84
2018-06-29T02:59:56.376Z,984.82
2018-06-29T03:00:56.319Z,984.85
2018-06-29T03:01:56.267Z,984.85
2018-06-29T03:02:56.213Z,984.87
2018-06-29T03:03:56.157Z,984.96
2018-06-29T03:04:56.106Z,984.90
2018-06-29T03:05:56.051Z,984.92
2018-06-29T03:06:55.998Z,984.95
2018-06-29T03:07:55.942Z,984.94
2018-06-29T03:08:55.890Z,984.98
2018-06-29T03:09:55.837Z,984.93
2018-06-29T03:10:55.781Z,984.95
2018-06-29T03:11:55.729Z,984.92
2018-06-29T03:12:55.676Z,984.95
2018-06-29T03:13:55.626Z,984.90
2018-06-29T03:14:55.567Z,984.96
2018-06-29T03:15:55.515Z,984.96
2018-06-29T03:16:55.461Z,984.96
2018-06-29T03:17:55.405Z,984.93
2018-06-29T03:18:55.352Z,984.95
2018-06-29T03:19:55.298Z,984.97
2018-06-29T03:20:55.245Z,984.95
2018-06-29T03:21:55.191Z,984.96
2018-06-29T03:22:55.138Z,984.93
2018-06-29T03:23:55.084Z,984.92
2018-06-29T03:24:55.033Z,984.91
2018-06-29T03:25:54.978Z,984.89
2018-06-29T03:26:54.922Z,984.86
2018-06-29T03:27:54.873Z,984.85
2018-06-29T03:28:54.816Z,984.84
2018-06-29T03:29:54.761Z,984.85
2018-06-29T03:30:54.708Z,984.89
2018-06-29T03:31:54.655Z,984.89
2018-06-29T03:32:54.608Z,984.92
2018-06-29T03:33:54.546Z,984.95
2018-06-29T03:34:54.493Z,985.00
2018-06-29T03:35:54.440Z,984.95
2018-06-29T03:36:54.385Z,984.98
2018-06-29T03:37:54.331Z,984.92
2018-06-29T03:38:54.278Z,984.94
2018-06-29T03:39:54.224Z,984.91
2018-06-29T03:40:54.172Z,984.86
2018-06-29T03:41:54.117Z,984.84
2018-06-29T03:42:54.065Z,984.82
2018-06-29T03:43:54.023Z,984.82
2018-06-29T03:44:53.958Z,984.78
2018-06-29T03:45:53.904Z,984.76
2018-06-29T03:46:53.860Z,984.70
2018-06-29T03:47:53.797Z,984.72
2018-06-29T03:48:53.743Z,984.74
2018-06-29T03:49:53.689Z,984.80
2018-06-29T03:50:53.635Z,984.80
2018-06-29T03:51:53.591Z,984.80
2018-06-29T03:52:53.528Z,984.80
2018-06-29T03:53:53.475Z,984.81
2018-06-29T03:54:53.421Z,984.80
2018-06-29T03:55:53.368Z,984.84
2018-06-29T03:56:53.316Z,984.85
2018-06-29T03:57:53.262Z,984.83
2018-06-29T03:58:53.206Z,984.83
2018-06-29T03:59:53.155Z,984.84
2018-06-29T04:00:53.100Z,984.86
2018-06-29T04:01:53.045Z,984.85
2018-06-29T04:02:52.996Z,984.86
2018-06-29T04:03:52.940Z,984.88
2018-06-29T04:04:52.886Z,984.88
2018-06-29T04:05:52.831Z,984.89
2018-06-29T04:06:52.776Z,984.86
2018-06-29T04:07:52.724Z,984.90
2018-06-29T04:08:52.671Z,984.93
2018-06-29T04:09:52.620Z,984.92
2018-06-29T04:10:52.567Z,984.91
2018-06-29T04:11:52.510Z,984.92
2018-06-29T04:12:52.496Z,984.93
2018-06-29T04:13:52.402Z,984.95
2018-06-29T04:14:52.350Z,984.95
2018-06-29T04:15:52.296Z,985.00
2018-06-29T04:16:52.243Z,985.05
2018-06-29T04:17:52.188Z,985.04
2018-06-29T04:18:52.136Z,985.01
2018-06-29T04:19:52.082Z,985.00
2018-06-29T04:20:52.029Z,985.01
2018-06-29T04:21:51.975Z,985.00
2018-06-29T04:22:51.922Z,984.95
2018-06-29T04:23:51.869Z,984.93
2018-06-29T04:24:51.815Z,984.91
2018-06-29T04:25:51.763Z,984.88
2018-06-29T04:26:51.707Z,984.86
2018-06-29T04:27:51.657Z,984.88
2018-06-29T04:28:51.601Z,984.88
2018-06-29T04:29:51.552Z,984.85
2018-06-29T04:30:51.493Z,984.88
2018-06-29T04:31:51.441Z,984.87
2018-06-29T04:32:51.460Z,984.92
2018-06-29T04:33:51.335Z,984.83
2018-06-29T04:34:51.285Z,984.83
2018-06-29T04:35:51.228Z,984.81
2018-06-29T04:36:51.175Z,984.84
2018-06-29T04:37:51.123Z,984.85
2018-06-29T04:38:51.068Z,984.84
2018-06-29T04:39:51.016Z,984.85
2018-06-29T04:40:50.962Z,984.82
2018-06-29T04:41:50.912Z,984.82
2018-06-29T04:42:50.888Z,984.79
2018-06-29T04:43:50.802Z,984.76
2018-06-29T04:44:50.747Z,984.72
2018-06-29T04:45:50.696Z,984.77
2018-06-29T04:46:50.640Z,984.75
2018-06-29T04:47:50.587Z,984.71
2018-06-29T04:48:50.536Z,984.74
2018-06-29T04:49:50.479Z,984.74
2018-06-29T04:50:50.426Z,984.75
2018-06-29T04:51:50.374Z,984.73
2018-06-29T04:52:50.321Z,984.78
2018-06-29T04:53:50.269Z,984.76
2018-06-29T04:54:50.213Z,984.72
2018-06-29T04:55:50.159Z,984.75
2018-06-29T04:56:50.105Z,984.75
2018-06-29T04:57:50.051Z,984.72
2018-06-29T04:58:50.000Z,984.71
2018-06-29T04:59:49.946Z,984.68
2018-06-29T05:00:49.907Z,984.70
2018-06-29T05:01:49.842Z,984.68
2018-06-29T05:02:49.786Z,984.71
2018-06-29T05:03:49.732Z,984.69
2018-06-29T05:04:49.681Z,984.72
2018-06-29T05:05:49.624Z,984.73
2018-06-29T05:06:49.570Z,984.69
2018-06-29T05:07:49.519Z,984.71
2018-06-29T05:08:49.465Z,984.77
2018-06-29T05:09:49.410Z,984.72
2018-06-29T05:10:49.359Z,984.80
2018-06-29T05:11:49.307Z,984.75
2018-06-29T05:12:49.254Z,984.67
2018-06-29T05:13:49.197Z,984.69
2018-06-29T05:14:49.145Z,984.66
2018-06-29T05:15:49.145Z,984.71
2018-06-29T05:16:49.040Z,984.71
2018-06-29T05:17:48.984Z,984.71
2018-06-29T05:18:48.934Z,984.72
2018-06-29T05:19:48.880Z,984.72
2018-06-29T05:20:48.825Z,984.76
2018-06-29T05:21:48.772Z,984.77
2018-06-29T05:22:48.720Z,984.75
2018-06-29T05:23:48.668Z,984.74
2018-06-29T05:24:48.613Z,984.70
2018-06-29T05:25:48.561Z,984.70
2018-06-29T05:26:48.519Z,984.75
2018-06-29T05:27:48.458Z,984.77
2018-06-29T05:28:48.402Z,984.82
2018-06-29T05:29:48.349Z,984.81
2018-06-29T05:30:48.294Z,984.88
2018-06-29T05:31:48.243Z,984.90
2018-06-29T05:32:48.192Z,984.93
2018-06-29T05:33:48.136Z,984.94
2018-06-29T05:34:48.083Z,984.96
2018-06-29T05:35:48.039Z,984.91
2018-06-29T05:36:47.978Z,984.90
2018-06-29T05:37:47.924Z,984.87
2018-06-29T05:38:47.872Z,984.92
2018-06-29T05:39:47.821Z,984.84
2018-06-29T05:40:47.767Z,984.82
2018-06-29T05:41:47.750Z,984.80
2018-06-29T05:42:47.772Z,984.82
2018-06-29T05:43:47.606Z,984.81
2018-06-29T05:44:47.555Z,984.84
2018-06-29T05:45:47.502Z,984.81
2018-06-29T05:46:47.449Z,984.84
2018-06-29T05:47:47.395Z,984.77
2018-06-29T05:48:47.344Z,984.79
2018-06-29T05:49:47.290Z,984.81
2018-06-29T05:50:47.237Z,984.86
2018-06-29T05:51:47.185Z,984.82
2018-06-29T05:52:47.132Z,984.80
2018-06-29T05:53:47.080Z,984.83
2018-06-29T05:54:47.026Z,984.81
2018-06-29T05:55:46.974Z,984.86
2018-06-29T05:56:46.924Z,984.84
2018-06-29T05:57:46.868Z,984.86
2018-06-29T05:58:46.817Z,984.87
2018-06-29T05:59:46.766Z,984.88
2018-06-29T06:00:46.712Z,984.90
2018-06-29T06:01:46.662Z,984.85
2018-06-29T06:02:46.606Z,984.86
2018-06-29T06:03:46.554Z,984.87
2018-06-29T06:04:46.524Z,984.85
2018-06-29T06:05:46.448Z,984.84
2018-06-29T06:06:46.395Z,984.91
2018-06-29T06:07:46.346Z,984.88
2018-06-29T06:08:46.292Z,984.96
2018-06-29T06:09:46.238Z,984.95
2018-06-29T06:10:46.186Z,984.95
2018-06-29T06:11:46.132Z,984.94
2018-06-29T06:12:46.081Z,984.94
2018-06-29T06:13:46.032Z,984.98
2018-06-29T06:14:45.976Z,985.03
2018-06-29T06:15:45.922Z,984.99
2018-06-29T06:16:45.871Z,984.96
2018-06-29T06:17:45.815Z,984.94
2018-06-29T06:18:45.764Z,984.98
2018-06-29T06:19:45.712Z,984.97
2018-06-29T06:20:45.658Z,984.92
2018-06-29T06:21:45.606Z,984.90
2018-06-29T06:22:45.556Z,984.84
2018-06-29T06:23:45.502Z,984.79
2018-06-29T06:24:45.449Z,984.77
2018-06-29T06:25:45.397Z,984.70
2018-06-29T06:26:45.344Z,984.68
2018-06-29T06:27:45.292Z,984.67
2018-06-29T06:28:45.245Z,984.65
2018-06-29T06:29:45.190Z,984.63
2018-06-29T06:30:45.136Z,984.58
2018-06-29T06:31:45.086Z,984.56
2018-06-29T06:32:45.035Z,984.60
2018-06-29T06:33:44.979Z,984.64
2018-06-29T06:34:44.930Z,984.61
2018-06-29T06:35:44.875Z,984.65
2018-06-29T06:36:44.824Z,984.68
2018-06-29T06:37:44.770Z,984.65
2018-06-29T06:38:44.717Z,984.66
2018-06-29T06:39:44.666Z,984.66
2018-06-29T06:40:44.613Z,984.66
2018-06-29T06:41:44.625Z,984.68
2018-06-29T06:42:44.510Z,984.68
2018-06-29T06:43:44.457Z,984.67
2018-06-29T06:44:44.406Z,984.70
2018-06-29T06:45:44.355Z,984.66
2018-06-29T06:46:44.307Z,984.66
2018-06-29T06:47:44.250Z,984.69
2018-06-29T06:48:44.198Z,984.75
2018-06-29T06:49:44.145Z,984.75
2018-06-29T06:50:44.095Z,984.70
2018-06-29T06:51:44.042Z,984.68
2018-06-29T06:52:43.992Z,984.68
2018-06-29T06:53:43.997Z,984.71
2018-06-29T06:54:43.887Z,984.72
2018-06-29T06:55:43.841Z,984.63
2018-06-29T06:56:43.791Z,984.65
2018-06-29T06:57:43.731Z,984.65
2018-06-29T06:58:43.686Z,984.63
2018-06-29T06:59:43.629Z,984.63
2018-06-29T07:00:43.577Z,984.66
2018-06-29T07:01:43.528Z,984.69
2018-06-29T07:02:43.482Z,984.65
2018-06-29T07:03:43.423Z,984.61
2018-06-29T07:04:43.371Z,984.63
2018-06-29T07:05:43.321Z,984.63
2018-06-29T07:06:43.268Z,984.64
2018-06-29T07:07:43.217Z,984.69
2018-06-29T07:08:43.166Z,984.66
2018-06-29T07:09:43.114Z,984.65
2018-06-29T07:10:43.062Z,984.64
2018-06-29T07:11:43.011Z,984.60
2018-06-29T07:12:42.970Z,984.59
2018-06-29T07:13:42.908Z,984.59
2018-06-29T07:14:42.855Z,984.56
2018-06-29T07:15:42.807Z,984.60
2018-06-29T07:16:42.754Z,984.64
2018-06-29T07:17:42.715Z,984.63
2018-06-29T07:18:42.653Z,984.62
2018-06-29T07:19:42.599Z,984.64
2018-06-29T07:20:42.548Z,984.64
2018-06-29T07:21:42.495Z,984.59
2018-06-29T07:22:42.446Z,984.63
2018-06-29T07:23:42.393Z,984.62
2018-06-29T07:24:42.341Z,984.62
2018-06-29T07:25:42.291Z,984.64
2018-06-29T07:26:42.238Z,984.64
2018-06-29T07:27:42.190Z,984.64
2018-06-29T07:28:42.135Z,984.70
2018-06-29T07:29:42.083Z,984.65
2018-06-29T07:30:42.038Z,984.67
2018-06-29T07:31:41.981Z,984.74
2018-06-29T07:32:41.930Z,984.73
2018-06-29T07:33:41.878Z,984.72
2018-06-29T07:34:41.828Z,984.73
2018-06-29T07:35:41.778Z,984.75
2018-06-29T07:36:41.728Z,984.75
2018-06-29T07:37:41.671Z,984.77
2018-06-29T07:38:41.641Z,984.80
2018-06-29T07:39:41.568Z,984.81
2018-06-29T07:40:41.518Z,984.79
2018-06-29T07:41:41.471Z,984.78
2018-06-29T07:42:41.414Z,984.81
2018-06-29T07:43:41.365Z,984.81
2018-06-29T07:44:41.313Z,984.82
2018-06-29T07:45:41.261Z,984.79
2018-06-29T07:46:41.282Z,984.77
2018-06-29T07:47:41.159Z,984.71
2018-06-29T07:48:41.108Z,984.70
2018-06-29T07:49:41.055Z,984.73
2018-06-29T07:50:41.004Z,984.73
2018-06-29T07:51:40.953Z,984.73
2018-06-29T07:52:40.903Z,984.74
2018-06-29T07:53:40.854Z,984.74
2018-06-29T07:54:40.803Z,984.72
2018-06-29T07:55:40.750Z,984.78
2018-06-29T07:56:40.699Z,984.78
2018-06-29T07:57:40.646Z,984.77
2018-06-29T07:58:40.654Z,984.79
2018-06-29T07:59:40.546Z,984.76
2018-06-29T08:00:40.494Z,984.71
2018-06-29T08:01:40.445Z,984.66
2018-06-29T08:02:40.404Z,984.69
2018-06-29T08:03:40.343Z,984.63
2018-06-29T08:04:40.292Z,984.64
2018-06-29T08:05:40.242Z,984.67
2018-06-29T08:06:40.191Z,984.67
2018-06-29T08:07:40.142Z,984.67
2018-06-29T08:08:40.089Z,984.68
2018-06-29T08:09:40.039Z,984.66
2018-06-29T08:10:39.995Z,984.65
2018-06-29T08:11:39.943Z,984.64
2018-06-29T08:12:39.888Z,984.63
2018-06-29T08:13:39.836Z,984.65
2018-06-29T08:14:39.787Z,984.66
2018-06-29T08:15:39.736Z,984.68
2018-06-29T08:16:39.685Z,984.69
2018-06-29T08:17:39.635Z,984.71
2018-06-29T08:18:39.583Z,984.66
2018-06-29T08:19:39.534Z,984.69
2018-06-29T08:20:39.483Z,984.68
2018-06-29T08:21:39.434Z,984.65
2018-06-29T08:22:39.383Z,984.68
2018-06-29T08:23:39.331Z,984.65
2018-06-29T08:24:39.282Z,984.67
2018-06-29T08:25:39.231Z,984.71
2018-06-29T08:26:39.182Z,984.75
2018-06-29T08:27:39.130Z,984.70
2018-06-29T08:28:39.080Z,984.69
2018-06-29T08:29:39.033Z,984.66
2018-06-29T08:30:38.976Z,984.66
2018-06-29T08:31:38.927Z,984.62
2018-06-29T08:32:38.876Z,984.62
2018-06-29T08:33:38.839Z,984.64
2018-06-29T08:34:38.775Z,984.65
2018-06-29T08:35:38.724Z,984.67
2018-06-29T08:36:38.674Z,984.68
2018-06-29T08:37:38.623Z,984.67
2018-06-29T08:38:38.628Z,984.67
2018-06-29T08:39:38.522Z,984.64
2018-06-29T08:40:38.472Z,984.66
2018-06-29T08:41:38.420Z,984.65
2018-06-29T08:42:38.370Z,984.57
2018-06-29T08:43:38.318Z,984.61
2018-06-29T08:44:38.272Z,984.63
2018-06-29T08:45:38.218Z,984.58
2018-06-29T08:46:38.181Z,984.55
2018-06-29T08:47:38.117Z,984.61
2018-06-29T08:48:38.067Z,984.64
2018-06-29T08:49:38.049Z,984.60
2018-06-29T08:50:37.966Z,984.61
2018-06-29T08:51:37.914Z,984.57
2018-06-29T08:52:37.865Z,984.61
2018-06-29T08:53:37.812Z,984.59
2018-06-29T08:54:37.764Z,984.63
2018-06-29T08:55:37.716Z,984.63
2018-06-29T08:56:37.662Z,984.63
2018-06-29T08:57:37.614Z,984.58
2018-06-29T08:58:37.563Z,984.63
2018-06-29T08:59:37.512Z,984.65
2018-06-29T09:00:37.466Z,984.66
2018-06-29T09:01:37.412Z,984.62
2018-06-29T09:02:37.360Z,984.64
2018-06-29T09:03:37.311Z,984.60
2018-06-29T09:04:37.261Z,984.60
2018-06-29T09:05:37.232Z,984.58
2018-06-29T09:06:37.160Z,984.55
2018-06-29T09:07:37.112Z,984.57
2018-06-29T09:08:37.067Z,984.58
2018-06-29T09:09:37.010Z,984.61
2018-06-29T09:10:36.960Z,984.54
2018-06-29T09:11:36.912Z,984.52
2018-06-29T09:12:36.863Z,984.55
2018-06-29T09:13:36.812Z,984.45
2018-06-29T09:14:36.767Z,984.45
2018-06-29T09:15:36.713Z,984.43
2018-06-29T09:16:36.663Z,984.41
2018-06-29T09:17:36.612Z,984.43
2018-06-29T09:18:36.563Z,984.44
2018-06-29T09:19:36.513Z,984.47
2018-06-29T09:20:36.464Z,984.44
2018-06-29T09:21:36.420Z,984.45
2018-06-29T09:22:36.364Z,984.43
2018-06-29T09:23:36.318Z,984.43
2018-06-29T09:24:36.268Z,984.40
2018-06-29T09:25:36.222Z,984.44
2018-06-29T09:26:36.164Z,984.45
2018-06-29T09:27:36.116Z,984.40
2018-06-29T09:28:36.065Z,984.39
2018-06-29T09:29:36.018Z,984.37
2018-06-29T09:30:35.966Z,984.33
2018-06-29T09:31:35.918Z,984.34
2018-06-29T09:32:35.869Z,984.35
2018-06-29T09:33:35.819Z,984.27
2018-06-29T09:34:35.770Z,984.26
2018-06-29T09:35:35.719Z,984.29
2018-06-29T09:36:35.674Z,984.25
2018-06-29T09:37:35.618Z,984.31
2018-06-29T09:38:35.571Z,984.29
2018-06-29T09:39:35.521Z,984.27
2018-06-29T09:40:35.471Z,984.30
2018-06-29T09:41:35.423Z,984.33
2018-06-29T09:42:35.393Z,984.31
2018-06-29T09:43:35.322Z,984.27
2018-06-29T09:44:35.273Z,984.31
2018-06-29T09:45:35.223Z,984.29
2018-06-29T09:46:35.173Z,984.32
2018-06-29T09:47:35.122Z,984.37
2018-06-29T09:48:35.074Z,984.38
2018-06-29T09:49:35.029Z,984.38
2018-06-29T09:50:34.976Z,984.40
2018-06-29T09:51:34.925Z,984.39
2018-06-29T09:52:34.875Z,984.38
2018-06-29T09:53:34.829Z,984.39
2018-06-29T09:54:34.777Z,984.43
2018-06-29T09:55:34.728Z,984.46
2018-06-29T09:56:34.683Z,984.39
2018-06-29T09:57:34.628Z,984.36
2018-06-29T09:58:34.579Z,984.38
2018-06-29T09:59:34.530Z,984.38
2018-06-29T10:00:34.505Z,984.36
2018-06-29T10:01:34.431Z,984.34
2018-06-29T10:02:39.276Z,984.30
2018-06-29T10:03:34.333Z,984.26
2018-06-29T10:04:34.285Z,984.21
2018-06-29T10:05:34.238Z,984.23
2018-06-29T10:06:34.217Z,984.19
2018-06-29T10:07:34.137Z,984.19
2018-06-29T10:08:34.088Z,984.20
2018-06-29T10:09:34.038Z,984.24
2018-06-29T10:10:33.993Z,984.22
2018-06-29T10:11:33.941Z,984.19
2018-06-29T10:12:33.893Z,984.21
2018-06-29T10:13:33.843Z,984.18
2018-06-29T10:14:33.794Z,984.21
2018-06-29T10:15:33.747Z,984.18
2018-06-29T10:16:33.702Z,984.18
2018-06-29T10:17:33.649Z,984.20
2018-06-29T10:18:33.605Z,984.21
2018-06-29T10:19:33.618Z,984.15
2018-06-29T10:20:33.503Z,984.07
2018-06-29T10:21:33.455Z,984.04
2018-06-29T10:22:33.519Z,984.05
2018-06-29T10:23:33.358Z,984.08
2018-06-29T10:24:33.315Z,984.09
2018-06-29T10:25:33.306Z,984.07
2018-06-29T10:26:33.211Z,984.06
2018-06-29T10:27:33.162Z,984.03
2018-06-29T10:28:33.114Z,984.07
2018-06-29T10:29:33.067Z,983.99
2018-06-29T10:30:33.020Z,983.95
2018-06-29T10:31:32.969Z,983.96
2018-06-29T10:32:32.922Z,983.94
2018-06-29T10:33:32.872Z,983.96
2018-06-29T10:34:32.823Z,983.91
2018-06-29T10:35:32.779Z,983.94
2018-06-29T10:36:32.740Z,983.91
2018-06-29T10:37:32.679Z,983.87
2018-06-29T10:38:32.631Z,983.85
2018-06-29T10:39:32.585Z,983.85
2018-06-29T10:40:32.533Z,983.89
2018-06-29T10:41:32.511Z,983.87
2018-06-29T10:42:32.434Z,983.89
2018-06-29T10:43:32.386Z,983.84
2018-06-29T10:44:32.383Z,983.83
2018-06-29T10:45:32.288Z,983.86
2018-06-29T10:46:32.243Z,983.82
2018-06-29T10:47:32.191Z,983.82
2018-06-29T10:48:32.143Z,983.86
2018-06-29T10:49:32.094Z,983.82
2018-06-29T10:50:32.044Z,983.80
2018-06-29T10:51:31.997Z,983.82
2018-06-29T10:52:31.947Z,983.84
2018-06-29T10:53:31.902Z,983.85
2018-06-29T10:54:31.852Z,983.82
2018-06-29T10:55:31.803Z,983.87
2018-06-29T10:56:31.754Z,983.79
2018-06-29T10:57:31.707Z,983.85
2018-06-29T10:58:31.659Z,983.82
2018-06-29T10:59:31.609Z,983.77
2018-06-29T11:00:31.564Z,983.76
2018-06-29T11:01:31.511Z,983.74
2018-06-29T11:02:31.464Z,983.70
2018-06-29T11:03:31.414Z,983.72
2018-06-29T11:04:31.367Z,983.71
2018-06-29T11:05:31.363Z,983.68
2018-06-29T11:06:31.270Z,983.69
2018-06-29T11:07:31.244Z,983.66
2018-06-29T11:08:31.182Z,983.67
2018-06-29T11:09:31.185Z,983.59
2018-06-29T11:10:31.089Z,983.62
2018-06-29T11:11:31.033Z,983.55
2018-06-29T11:12:30.987Z,983.57
2018-06-29T11:13:30.936Z,983.58
2018-06-29T11:14:30.889Z,983.58
2018-06-29T11:15:30.842Z,983.55
2018-06-29T11:16:30.795Z,983.54
2018-06-29T11:17:30.753Z,983.51
2018-06-29T11:18:30.700Z,983.54
2018-06-29T11:19:30.653Z,983.52
2018-06-29T11:20:30.605Z,983.53
2018-06-29T11:21:30.558Z,983.46
2018-06-29T11:22:30.567Z,983.49
2018-06-29T11:23:30.464Z,983.53
2018-06-29T11:24:30.417Z,983.52
2018-06-29T11:25:30.367Z,983.48
2018-06-29T11:26:30.327Z,983.48
2018-06-29T11:27:30.275Z,983.51
2018-06-29T11:28:30.228Z,983.54
2018-06-29T11:29:30.180Z,983.51
2018-06-29T11:30:30.134Z,983.48
2018-06-29T11:31:30.087Z,983.45
2018-06-29T11:32:30.043Z,983.42
2018-06-29T11:33:29.992Z,983.40
2018-06-29T11:34:29.947Z,983.42
2018-06-29T11:35:29.898Z,983.38
2018-06-29T11:36:29.852Z,983.38
2018-06-29T11:37:29.806Z,983.44
2018-06-29T11:38:29.758Z,983.40
2018-06-29T11:39:29.710Z,983.32
2018-06-29T11:40:29.664Z,983.31
2018-06-29T11:41:29.618Z,983.37
2018-06-29T11:42:29.661Z,983.34
2018-06-29T11:43:29.527Z,983.36
2018-06-29T11:44:29.480Z,983.35
2018-06-29T11:45:29.432Z,983.33
2018-06-29T11:46:29.384Z,983.28
2018-06-29T11:47:29.338Z,983.26
2018-06-29T11:48:29.290Z,983.29
2018-06-29T11:49:29.244Z,983.26
2018-06-29T11:50:29.198Z,983.25
2018-06-29T11:51:29.185Z,983.24
2018-06-29T11:52:29.105Z,983.15
2018-06-29T11:53:29.057Z,983.19
2018-06-29T11:54:29.010Z,983.17
2018-06-29T11:55:28.964Z,983.16
2018-06-29T11:56:28.951Z,983.18
2018-06-29T11:57:28.872Z,983.15
2018-06-29T11:58:28.824Z,983.15
2018-06-29T11:59:28.817Z,983.11
2018-06-29T12:00:28.731Z,983.11
2018-06-29T12:01:28.685Z,983.18
2018-06-29T12:02:28.637Z,983.13
2018-06-29T12:03:28.594Z,983.13
2018-06-29T12:04:28.546Z,983.09
2018-06-29T12:05:28.497Z,983.09
2018-06-29T12:06:28.452Z,983.09
2018-06-29T12:07:28.404Z,983.06
2018-06-29T12:08:28.360Z,983.03
2018-06-29T12:09:28.310Z,983.04
2018-06-29T12:10:28.269Z,983.05
2018-06-29T12:11:28.219Z,983.02
2018-06-29T12:12:28.171Z,983.00
2018-06-29T12:13:28.124Z,983.00
2018-06-29T12:14:28.078Z,982.96
2018-06-29T12:15:28.034Z,983.01
2018-06-29T12:16:27.988Z,982.97
2018-06-29T12:17:27.940Z,982.99
2018-06-29T12:18:27.893Z,983.01
2018-06-29T12:19:27.849Z,983.03
2018-06-29T12:20:27.803Z,982.99
2018-06-29T12:21:27.752Z,983.00
2018-06-29T12:22:27.707Z,983.01
2018-06-29T12:23:27.689Z,983.04
2018-06-29T12:24:27.615Z,983.00
2018-06-29T12:25:27.586Z,983.01
2018-06-29T12:26:27.520Z,982.97
2018-06-29T12:27:27.473Z,982.99